sensor_id;sensor_type;location;lat;lon;timestamp;P1;durP1;ratioP1;P2;durP2;ratioP2
13969;SDS011;7057;49.984;8.404;2022-11-25T00:02:26;15.27;;;7.07;;
13969;SDS011;7057;49.984;8.404;2022-11-25T00:04:54;13.00;;;6.97;;
13969;SDS011;7057;49.984;8.404;2022-11-25T00:07:21;11.10;;;6.70;;
13969;SDS011;7057;49.984;8.404;2022-11-25T00:09:48;16.13;;;6.67;;
13969;SDS011;7057;49.984;8.404;2022-11-25T00:12:15;17.00;;;7.13;;
13969;SDS011;7057;49.984;8.404;2022-11-25T00:14:42;10.60;;;6.23;;
13969;SDS011;7057;49.984;8.404;2022-11-25T00:17:11;11.30;;;6.73;;
13969;SDS011;7057;49.984;8.404;2022-11-25T00:19:38;13.30;;;6.83;;
13969;SDS011;7057;49.984;8.404;2022-11-25T00:22:05;12.60;;;6.43;;
13969;SDS011;7057;49.984;8.404;2022-11-25T00:24:32;12.47;;;7.23;;
13969;SDS011;7057;49.984;8.404;2022-11-25T00:26:59;13.50;;;6.73;;
13969;SDS011;7057;49.984;8.404;2022-11-25T00:29:29;9.50;;;6.20;;
13969;SDS011;7057;49.984;8.404;2022-11-25T00:31:56;14.20;;;6.60;;
13969;SDS011;7057;49.984;8.404;2022-11-25T00:34:25;13.53;;;7.23;;
13969;SDS011;7057;49.984;8.404;2022-11-25T00:36:52;17.23;;;8.13;;
13969;SDS011;7057;49.984;8.404;2022-11-25T00:39:19;11.20;;;7.82;;
13969;SDS011;7057;49.984;8.404;2022-11-25T00:41:49;15.88;;;7.93;;
13969;SDS011;7057;49.984;8.404;2022-11-25T00:44:33;16.50;;;8.50;;
13969;SDS011;7057;49.984;8.404;2022-11-25T00:47:01;12.93;;;8.15;;
13969;SDS011;7057;49.984;8.404;2022-11-25T00:49:29;15.67;;;7.93;;
13969;SDS011;7057;49.984;8.404;2022-11-25T00:51:57;13.05;;;7.60;;
13969;SDS011;7057;49.984;8.404;2022-11-25T00:54:24;12.27;;;7.13;;
13969;SDS011;7057;49.984;8.404;2022-11-25T00:56:52;15.30;;;8.45;;
13969;SDS011;7057;49.984;8.404;2022-11-25T00:59:19;16.05;;;8.68;;
13969;SDS011;7057;49.984;8.404;2022-11-25T01:01:46;17.20;;;8.03;;
13969;SDS011;7057;49.984;8.404;2022-11-25T01:04:14;15.77;;;8.00;;
13969;SDS011;7057;49.984;8.404;2022-11-25T01:06:43;20.27;;;8.60;;
13969;SDS011;7057;49.984;8.404;2022-11-25T01:09:11;14.57;;;7.50;;
13969;SDS011;7057;49.984;8.404;2022-11-25T01:11:38;10.83;;;6.90;;
13969;SDS011;7057;49.984;8.404;2022-11-25T01:14:06;12.77;;;7.93;;
13969;SDS011;7057;49.984;8.404;2022-11-25T01:16:33;12.23;;;6.47;;
13969;SDS011;7057;49.984;8.404;2022-11-25T01:19:01;12.97;;;7.60;;
13969;SDS011;7057;49.984;8.404;2022-11-25T01:21:29;8.67;;;6.80;;
13969;SDS011;7057;49.984;8.404;2022-11-25T01:23:59;9.50;;;6.13;;
13969;SDS011;7057;49.984;8.404;2022-11-25T01:26:28;13.40;;;6.67;;
13969;SDS011;7057;49.984;8.404;2022-11-25T01:28:56;12.27;;;7.17;;
13969;SDS011;7057;49.984;8.404;2022-11-25T01:31:26;11.10;;;6.67;;
13969;SDS011;7057;49.984;8.404;2022-11-25T01:33:55;15.03;;;7.33;;
13969;SDS011;7057;49.984;8.404;2022-11-25T01:36:25;10.30;;;7.03;;
13969;SDS011;7057;49.984;8.404;2022-11-25T01:38:53;12.03;;;6.63;;
13969;SDS011;7057;49.984;8.404;2022-11-25T01:41:23;12.10;;;6.80;;
13969;SDS011;7057;49.984;8.404;2022-11-25T01:44:09;12.03;;;6.40;;
13969;SDS011;7057;49.984;8.404;2022-11-25T01:46:42;8.63;;;6.43;;
13969;SDS011;7057;49.984;8.404;2022-11-25T01:49:13;9.00;;;6.80;;
13969;SDS011;7057;49.984;8.404;2022-11-25T01:51:46;12.87;;;7.00;;
13969;SDS011;7057;49.984;8.404;2022-11-25T01:54:18;8.63;;;6.37;;
13969;SDS011;7057;49.984;8.404;2022-11-25T01:56:51;12.07;;;6.10;;
13969;SDS011;7057;49.984;8.404;2022-11-25T01:59:22;13.03;;;7.10;;
13969;SDS011;7057;49.984;8.404;2022-11-25T02:01:50;9.37;;;5.77;;
13969;SDS011;7057;49.984;8.404;2022-11-25T02:04:18;13.47;;;6.47;;
13969;SDS011;7057;49.984;8.404;2022-11-25T02:06:48;14.03;;;6.93;;
13969;SDS011;7057;49.984;8.404;2022-11-25T02:09:20;13.80;;;7.40;;
13969;SDS011;7057;49.984;8.404;2022-11-25T02:11:47;10.90;;;6.60;;
13969;SDS011;7057;49.984;8.404;2022-11-25T02:14:18;11.67;;;7.03;;
13969;SDS011;7057;49.984;8.404;2022-11-25T02:16:47;10.43;;;6.73;;
13969;SDS011;7057;49.984;8.404;2022-11-25T02:19:17;14.05;;;7.78;;
13969;SDS011;7057;49.984;8.404;2022-11-25T02:21:50;13.55;;;7.47;;
13969;SDS011;7057;49.984;8.404;2022-11-25T02:24:22;13.07;;;7.00;;
13969;SDS011;7057;49.984;8.404;2022-11-25T02:26:58;14.23;;;7.10;;
13969;SDS011;7057;49.984;8.404;2022-11-25T02:29:25;10.53;;;6.47;;
13969;SDS011;7057;49.984;8.404;2022-11-25T02:31:53;14.35;;;6.95;;
13969;SDS011;7057;49.984;8.404;2022-11-25T02:34:20;9.87;;;6.10;;
13969;SDS011;7057;49.984;8.404;2022-11-25T02:36:48;10.80;;;6.53;;
13969;SDS011;7057;49.984;8.404;2022-11-25T02:39:15;9.03;;;6.33;;
13969;SDS011;7057;49.984;8.404;2022-11-25T02:41:45;12.77;;;6.65;;
13969;SDS011;7057;49.984;8.404;2022-11-25T02:44:16;11.73;;;6.43;;
13969;SDS011;7057;49.984;8.404;2022-11-25T02:46:44;11.00;;;6.17;;
13969;SDS011;7057;49.984;8.404;2022-11-25T02:49:12;12.17;;;5.53;;
13969;SDS011;7057;49.984;8.404;2022-11-25T02:51:40;10.75;;;6.32;;
13969;SDS011;7057;49.984;8.404;2022-11-25T02:54:09;15.60;;;7.40;;
13969;SDS011;7057;49.984;8.404;2022-11-25T02:56:37;14.87;;;6.83;;
13969;SDS011;7057;49.984;8.404;2022-11-25T02:59:04;11.50;;;6.50;;
13969;SDS011;7057;49.984;8.404;2022-11-25T03:01:34;10.15;;;6.03;;
13969;SDS011;7057;49.984;8.404;2022-11-25T03:04:02;14.20;;;6.33;;
13969;SDS011;7057;49.984;8.404;2022-11-25T03:06:30;9.97;;;5.40;;
13969;SDS011;7057;49.984;8.404;2022-11-25T03:08:57;11.13;;;5.53;;
13969;SDS011;7057;49.984;8.404;2022-11-25T03:11:24;10.83;;;5.67;;
13969;SDS011;7057;49.984;8.404;2022-11-25T03:14:21;9.10;;;5.53;;
13969;SDS011;7057;49.984;8.404;2022-11-25T03:16:50;10.70;;;6.43;;
13969;SDS011;7057;49.984;8.404;2022-11-25T03:19:17;9.70;;;5.40;;
13969;SDS011;7057;49.984;8.404;2022-11-25T03:21:44;7.83;;;5.40;;
13969;SDS011;7057;49.984;8.404;2022-11-25T03:24:11;10.20;;;6.03;;
13969;SDS011;7057;49.984;8.404;2022-11-25T03:26:38;9.63;;;5.73;;
13969;SDS011;7057;49.984;8.404;2022-11-25T03:29:05;8.97;;;5.07;;
13969;SDS011;7057;49.984;8.404;2022-11-25T03:31:33;10.70;;;6.00;;
13969;SDS011;7057;49.984;8.404;2022-11-25T03:34:01;10.90;;;5.47;;
13969;SDS011;7057;49.984;8.404;2022-11-25T03:36:28;11.50;;;5.67;;
13969;SDS011;7057;49.984;8.404;2022-11-25T03:38:55;11.90;;;6.07;;
13969;SDS011;7057;49.984;8.404;2022-11-25T03:41:23;13.70;;;6.68;;
13969;SDS011;7057;49.984;8.404;2022-11-25T03:43:50;11.20;;;5.50;;
13969;SDS011;7057;49.984;8.404;2022-11-25T03:46:17;13.00;;;6.27;;
13969;SDS011;7057;49.984;8.404;2022-11-25T03:48:44;9.93;;;6.72;;
13969;SDS011;7057;49.984;8.404;2022-11-25T03:51:13;11.70;;;6.78;;
13969;SDS011;7057;49.984;8.404;2022-11-25T03:53:40;16.30;;;6.88;;
13969;SDS011;7057;49.984;8.404;2022-11-25T03:56:07;10.77;;;6.72;;
13969;SDS011;7057;49.984;8.404;2022-11-25T03:58:34;17.73;;;6.37;;
13969;SDS011;7057;49.984;8.404;2022-11-25T04:01:02;13.43;;;6.20;;
13969;SDS011;7057;49.984;8.404;2022-11-25T04:03:30;11.63;;;6.18;;
13969;SDS011;7057;49.984;8.404;2022-11-25T04:05:57;11.13;;;6.28;;
13969;SDS011;7057;49.984;8.404;2022-11-25T04:08:25;9.90;;;5.80;;
13969;SDS011;7057;49.984;8.404;2022-11-25T04:10:52;9.80;;;5.68;;
13969;SDS011;7057;49.984;8.404;2022-11-25T04:13:20;11.00;;;5.95;;
13969;SDS011;7057;49.984;8.404;2022-11-25T04:15:47;13.13;;;6.18;;
13969;SDS011;7057;49.984;8.404;2022-11-25T04:18:16;12.32;;;5.70;;
13969;SDS011;7057;49.984;8.404;2022-11-25T04:20:44;12.95;;;5.97;;
13969;SDS011;7057;49.984;8.404;2022-11-25T04:23:12;8.82;;;5.38;;
13969;SDS011;7057;49.984;8.404;2022-11-25T04:25:41;10.10;;;6.35;;
13969;SDS011;7057;49.984;8.404;2022-11-25T04:28:08;12.35;;;5.85;;
13969;SDS011;7057;49.984;8.404;2022-11-25T04:30:36;10.53;;;6.13;;
13969;SDS011;7057;49.984;8.404;2022-11-25T04:33:03;8.00;;;5.60;;
13969;SDS011;7057;49.984;8.404;2022-11-25T04:35:31;9.07;;;5.77;;
13969;SDS011;7057;49.984;8.404;2022-11-25T04:37:58;11.27;;;6.18;;
13969;SDS011;7057;49.984;8.404;2022-11-25T04:40:25;18.10;;;6.87;;
13969;SDS011;7057;49.984;8.404;2022-11-25T04:42:54;12.37;;;5.90;;
13969;SDS011;7057;49.984;8.404;2022-11-25T04:45:21;10.47;;;5.50;;
13969;SDS011;7057;49.984;8.404;2022-11-25T04:47:48;10.23;;;6.00;;
13969;SDS011;7057;49.984;8.404;2022-11-25T04:50:16;8.50;;;5.17;;
13969;SDS011;7057;49.984;8.404;2022-11-25T04:52:45;12.90;;;6.17;;
13969;SDS011;7057;49.984;8.404;2022-11-25T04:55:12;13.05;;;6.03;;
13969;SDS011;7057;49.984;8.404;2022-11-25T04:57:39;11.40;;;5.57;;
13969;SDS011;7057;49.984;8.404;2022-11-25T05:00:08;8.20;;;5.33;;
13969;SDS011;7057;49.984;8.404;2022-11-25T05:02:36;7.60;;;5.17;;
13969;SDS011;7057;49.984;8.404;2022-11-25T05:05:03;13.40;;;6.00;;
13969;SDS011;7057;49.984;8.404;2022-11-25T05:07:31;11.17;;;5.40;;
13969;SDS011;7057;49.984;8.404;2022-11-25T05:09:59;17.20;;;5.87;;
13969;SDS011;7057;49.984;8.404;2022-11-25T05:12:27;10.43;;;5.60;;
13969;SDS011;7057;49.984;8.404;2022-11-25T05:14:55;13.77;;;6.20;;
13969;SDS011;7057;49.984;8.404;2022-11-25T05:17:24;9.37;;;5.57;;
13969;SDS011;7057;49.984;8.404;2022-11-25T05:19:53;10.80;;;5.83;;
13969;SDS011;7057;49.984;8.404;2022-11-25T05:22:21;11.43;;;5.07;;
13969;SDS011;7057;49.984;8.404;2022-11-25T05:24:49;7.33;;;5.40;;
13969;SDS011;7057;49.984;8.404;2022-11-25T05:27:16;13.20;;;5.30;;
13969;SDS011;7057;49.984;8.404;2022-11-25T05:29:44;14.30;;;6.37;;
13969;SDS011;7057;49.984;8.404;2022-11-25T05:32:11;10.87;;;6.73;;
13969;SDS011;7057;49.984;8.404;2022-11-25T05:34:40;10.25;;;6.82;;
13969;SDS011;7057;49.984;8.404;2022-11-25T05:37:08;13.25;;;6.30;;
13969;SDS011;7057;49.984;8.404;2022-11-25T05:39:37;10.35;;;6.10;;
13969;SDS011;7057;49.984;8.404;2022-11-25T05:42:04;10.80;;;6.30;;
13969;SDS011;7057;49.984;8.404;2022-11-25T05:44:32;11.82;;;6.20;;
13969;SDS011;7057;49.984;8.404;2022-11-25T05:46:59;11.57;;;6.32;;
13969;SDS011;7057;49.984;8.404;2022-11-25T05:49:26;9.77;;;6.63;;
13969;SDS011;7057;49.984;8.404;2022-11-25T05:51:54;11.45;;;6.65;;
13969;SDS011;7057;49.984;8.404;2022-11-25T05:54:22;12.27;;;6.40;;
13969;SDS011;7057;49.984;8.404;2022-11-25T05:56:49;11.00;;;5.93;;
13969;SDS011;7057;49.984;8.404;2022-11-25T05:59:16;13.70;;;6.23;;
13969;SDS011;7057;49.984;8.404;2022-11-25T06:01:43;8.77;;;5.67;;
13969;SDS011;7057;49.984;8.404;2022-11-25T06:04:11;11.70;;;5.87;;
13969;SDS011;7057;49.984;8.404;2022-11-25T06:06:38;10.00;;;5.47;;
13969;SDS011;7057;49.984;8.404;2022-11-25T06:09:06;10.00;;;6.30;;
13969;SDS011;7057;49.984;8.404;2022-11-25T06:11:33;12.13;;;6.10;;
13969;SDS011;7057;49.984;8.404;2022-11-25T06:14:00;11.07;;;6.43;;
13969;SDS011;7057;49.984;8.404;2022-11-25T06:16:28;12.07;;;5.90;;
13969;SDS011;7057;49.984;8.404;2022-11-25T06:18:55;12.80;;;6.43;;
13969;SDS011;7057;49.984;8.404;2022-11-25T06:21:22;11.03;;;5.47;;
13969;SDS011;7057;49.984;8.404;2022-11-25T06:23:49;11.43;;;6.23;;
13969;SDS011;7057;49.984;8.404;2022-11-25T06:26:19;10.20;;;5.70;;
13969;SDS011;7057;49.984;8.404;2022-11-25T06:28:47;9.40;;;5.93;;
13969;SDS011;7057;49.984;8.404;2022-11-25T06:31:18;13.13;;;6.27;;
13969;SDS011;7057;49.984;8.404;2022-11-25T06:33:47;11.50;;;5.87;;
13969;SDS011;7057;49.984;8.404;2022-11-25T06:36:16;11.20;;;6.03;;
13969;SDS011;7057;49.984;8.404;2022-11-25T06:38:44;13.93;;;7.10;;
13969;SDS011;7057;49.984;8.404;2022-11-25T06:41:13;13.23;;;8.10;;
13969;SDS011;7057;49.984;8.404;2022-11-25T06:43:42;9.80;;;6.77;;
13969;SDS011;7057;49.984;8.404;2022-11-25T06:46:10;11.67;;;6.40;;
13969;SDS011;7057;49.984;8.404;2022-11-25T06:48:39;13.77;;;7.37;;
13969;SDS011;7057;49.984;8.404;2022-11-25T06:51:07;12.88;;;7.38;;
13969;SDS011;7057;49.984;8.404;2022-11-25T06:53:36;14.88;;;7.18;;
13969;SDS011;7057;49.984;8.404;2022-11-25T06:56:05;12.35;;;7.38;;
13969;SDS011;7057;49.984;8.404;2022-11-25T06:58:34;14.18;;;7.25;;
13969;SDS011;7057;49.984;8.404;2022-11-25T07:01:04;15.68;;;7.85;;
13969;SDS011;7057;49.984;8.404;2022-11-25T07:03:32;13.95;;;7.80;;
13969;SDS011;7057;49.984;8.404;2022-11-25T07:06:00;14.33;;;7.77;;
13969;SDS011;7057;49.984;8.404;2022-11-25T07:08:27;14.07;;;7.10;;
13969;SDS011;7057;49.984;8.404;2022-11-25T07:10:55;11.47;;;7.00;;
13969;SDS011;7057;49.984;8.404;2022-11-25T07:13:28;15.60;;;6.63;;
13969;SDS011;7057;49.984;8.404;2022-11-25T07:15:58;9.67;;;6.70;;
13969;SDS011;7057;49.984;8.404;2022-11-25T07:18:28;10.20;;;6.80;;
13969;SDS011;7057;49.984;8.404;2022-11-25T07:21:00;12.00;;;7.87;;
13969;SDS011;7057;49.984;8.404;2022-11-25T07:23:29;15.43;;;7.67;;
13969;SDS011;7057;49.984;8.404;2022-11-25T07:26:00;12.27;;;7.60;;
13969;SDS011;7057;49.984;8.404;2022-11-25T07:28:28;16.53;;;8.03;;
13969;SDS011;7057;49.984;8.404;2022-11-25T07:30:55;13.60;;;7.03;;
13969;SDS011;7057;49.984;8.404;2022-11-25T07:33:31;10.63;;;6.90;;
13969;SDS011;7057;49.984;8.404;2022-11-25T07:36:00;11.80;;;5.70;;
13969;SDS011;7057;49.984;8.404;2022-11-25T07:38:28;10.07;;;5.90;;
13969;SDS011;7057;49.984;8.404;2022-11-25T07:40:55;14.23;;;5.93;;
13969;SDS011;7057;49.984;8.404;2022-11-25T07:43:22;9.13;;;5.43;;
13969;SDS011;7057;49.984;8.404;2022-11-25T07:45:49;11.37;;;6.37;;
13969;SDS011;7057;49.984;8.404;2022-11-25T07:48:16;10.53;;;5.77;;
13969;SDS011;7057;49.984;8.404;2022-11-25T07:50:45;9.47;;;5.50;;
13969;SDS011;7057;49.984;8.404;2022-11-25T07:53:14;10.47;;;6.13;;
13969;SDS011;7057;49.984;8.404;2022-11-25T07:55:41;10.30;;;6.30;;
13969;SDS011;7057;49.984;8.404;2022-11-25T07:58:08;13.77;;;6.50;;
13969;SDS011;7057;49.984;8.404;2022-11-25T08:00:36;10.17;;;6.00;;
13969;SDS011;7057;49.984;8.404;2022-11-25T08:03:03;11.45;;;5.97;;
13969;SDS011;7057;49.984;8.404;2022-11-25T08:05:31;10.13;;;6.10;;
13969;SDS011;7057;49.984;8.404;2022-11-25T08:07:59;12.77;;;6.10;;
13969;SDS011;7057;49.984;8.404;2022-11-25T08:10:27;10.35;;;5.90;;
13969;SDS011;7057;49.984;8.404;2022-11-25T08:12:54;8.57;;;5.50;;
13969;SDS011;7057;49.984;8.404;2022-11-25T08:15:21;10.98;;;5.80;;
13969;SDS011;7057;49.984;8.404;2022-11-25T08:17:48;10.43;;;5.83;;
13969;SDS011;7057;49.984;8.404;2022-11-25T08:20:17;10.80;;;5.75;;
13969;SDS011;7057;49.984;8.404;2022-11-25T08:22:44;6.90;;;5.63;;
13969;SDS011;7057;49.984;8.404;2022-11-25T08:25:13;13.03;;;6.17;;
13969;SDS011;7057;49.984;8.404;2022-11-25T08:27:40;9.33;;;5.40;;
13969;SDS011;7057;49.984;8.404;2022-11-25T08:30:07;8.93;;;5.40;;
13969;SDS011;7057;49.984;8.404;2022-11-25T08:32:36;8.70;;;5.13;;
13969;SDS011;7057;49.984;8.404;2022-11-25T08:35:03;10.80;;;5.47;;
13969;SDS011;7057;49.984;8.404;2022-11-25T08:37:31;11.33;;;5.50;;
13969;SDS011;7057;49.984;8.404;2022-11-25T08:39:58;11.13;;;5.80;;
13969;SDS011;7057;49.984;8.404;2022-11-25T08:42:27;9.50;;;5.70;;
13969;SDS011;7057;49.984;8.404;2022-11-25T08:44:54;8.93;;;5.95;;
13969;SDS011;7057;49.984;8.404;2022-11-25T08:47:22;12.75;;;5.90;;
13969;SDS011;7057;49.984;8.404;2022-11-25T08:49:50;10.63;;;5.90;;
13969;SDS011;7057;49.984;8.404;2022-11-25T08:52:17;10.88;;;5.97;;
13969;SDS011;7057;49.984;8.404;2022-11-25T08:54:44;9.75;;;5.53;;
13969;SDS011;7057;49.984;8.404;2022-11-25T08:57:12;9.90;;;5.93;;
13969;SDS011;7057;49.984;8.404;2022-11-25T08:59:41;9.35;;;5.35;;
13969;SDS011;7057;49.984;8.404;2022-11-25T09:02:10;8.48;;;5.50;;
13969;SDS011;7057;49.984;8.404;2022-11-25T09:04:40;9.35;;;5.60;;
13969;SDS011;7057;49.984;8.404;2022-11-25T09:07:07;11.25;;;6.55;;
13969;SDS011;7057;49.984;8.404;2022-11-25T09:09:34;9.43;;;6.20;;
13969;SDS011;7057;49.984;8.404;2022-11-25T09:12:02;9.03;;;5.73;;
13969;SDS011;7057;49.984;8.404;2022-11-25T09:14:29;12.20;;;6.40;;
13969;SDS011;7057;49.984;8.404;2022-11-25T09:16:58;8.15;;;5.55;;
13969;SDS011;7057;49.984;8.404;2022-11-25T09:19:26;9.38;;;5.70;;
13969;SDS011;7057;49.984;8.404;2022-11-25T09:21:53;9.82;;;6.35;;
13969;SDS011;7057;49.984;8.404;2022-11-25T09:24:21;10.27;;;5.83;;
13969;SDS011;7057;49.984;8.404;2022-11-25T09:26:48;12.38;;;5.80;;
13969;SDS011;7057;49.984;8.404;2022-11-25T09:29:15;15.23;;;6.60;;
13969;SDS011;7057;49.984;8.404;2022-11-25T09:31:42;13.15;;;7.18;;
13969;SDS011;7057;49.984;8.404;2022-11-25T09:34:11;9.20;;;6.47;;
13969;SDS011;7057;49.984;8.404;2022-11-25T09:36:38;11.67;;;6.87;;
13969;SDS011;7057;49.984;8.404;2022-11-25T09:39:05;10.20;;;6.23;;
13969;SDS011;7057;49.984;8.404;2022-11-25T09:41:40;12.77;;;7.20;;
13969;SDS011;7057;49.984;8.404;2022-11-25T09:44:39;12.03;;;7.03;;
13969;SDS011;7057;49.984;8.404;2022-11-25T09:47:32;15.40;;;6.87;;
13969;SDS011;7057;49.984;8.404;2022-11-25T09:50:10;11.63;;;7.23;;
13969;SDS011;7057;49.984;8.404;2022-11-25T09:52:45;12.77;;;7.43;;
13969;SDS011;7057;49.984;8.404;2022-11-25T09:55:20;10.65;;;7.28;;
13969;SDS011;7057;49.984;8.404;2022-11-25T09:57:53;13.32;;;7.50;;
13969;SDS011;7057;49.984;8.404;2022-11-25T10:00:28;12.40;;;7.28;;
13969;SDS011;7057;49.984;8.404;2022-11-25T10:03:04;12.15;;;7.60;;
13969;SDS011;7057;49.984;8.404;2022-11-25T10:05:40;11.43;;;6.78;;
13969;SDS011;7057;49.984;8.404;2022-11-25T10:08:10;13.82;;;7.28;;
13969;SDS011;7057;49.984;8.404;2022-11-25T10:10:41;12.10;;;7.00;;
13969;SDS011;7057;49.984;8.404;2022-11-25T10:13:14;11.43;;;7.47;;
13969;SDS011;7057;49.984;8.404;2022-11-25T10:15:45;12.73;;;7.65;;
13969;SDS011;7057;49.984;8.404;2022-11-25T10:18:16;9.40;;;6.80;;
13969;SDS011;7057;49.984;8.404;2022-11-25T10:20:50;12.93;;;7.20;;
13969;SDS011;7057;49.984;8.404;2022-11-25T10:23:21;13.53;;;6.90;;
13969;SDS011;7057;49.984;8.404;2022-11-25T10:25:54;12.07;;;7.43;;
13969;SDS011;7057;49.984;8.404;2022-11-25T10:28:27;11.40;;;7.07;;
13969;SDS011;7057;49.984;8.404;2022-11-25T10:30:58;12.50;;;7.43;;
13969;SDS011;7057;49.984;8.404;2022-11-25T10:33:29;10.47;;;7.20;;
13969;SDS011;7057;49.984;8.404;2022-11-25T10:36:03;14.87;;;7.37;;
13969;SDS011;7057;49.984;8.404;2022-11-25T10:38:36;11.43;;;7.47;;
13969;SDS011;7057;49.984;8.404;2022-11-25T10:41:07;13.30;;;7.30;;
13969;SDS011;7057;49.984;8.404;2022-11-25T10:43:40;11.90;;;7.83;;
13969;SDS011;7057;49.984;8.404;2022-11-25T10:46:09;14.40;;;8.97;;
13969;SDS011;7057;49.984;8.404;2022-11-25T10:48:51;11.13;;;6.97;;
13969;SDS011;7057;49.984;8.404;2022-11-25T10:51:30;8.83;;;7.37;;
13969;SDS011;7057;49.984;8.404;2022-11-25T10:54:10;14.73;;;7.90;;
13969;SDS011;7057;49.984;8.404;2022-11-25T10:56:43;14.47;;;7.50;;
13969;SDS011;7057;49.984;8.404;2022-11-25T10:59:20;13.23;;;7.07;;
13969;SDS011;7057;49.984;8.404;2022-11-25T11:01:49;10.77;;;7.10;;
13969;SDS011;7057;49.984;8.404;2022-11-25T11:04:17;11.40;;;7.20;;
13969;SDS011;7057;49.984;8.404;2022-11-25T11:06:48;12.47;;;6.40;;
13969;SDS011;7057;49.984;8.404;2022-11-25T11:09:28;10.90;;;6.77;;
13969;SDS011;7057;49.984;8.404;2022-11-25T11:12:06;10.07;;;6.63;;
13969;SDS011;7057;49.984;8.404;2022-11-25T11:14:39;10.33;;;6.97;;
13969;SDS011;7057;49.984;8.404;2022-11-25T11:17:08;12.70;;;6.43;;
13969;SDS011;7057;49.984;8.404;2022-11-25T11:19:59;9.87;;;6.93;;
13969;SDS011;7057;49.984;8.404;2022-11-25T11:22:45;12.43;;;6.17;;
13969;SDS011;7057;49.984;8.404;2022-11-25T11:25:28;10.20;;;6.57;;
13969;SDS011;7057;49.984;8.404;2022-11-25T11:27:57;9.30;;;5.78;;
13969;SDS011;7057;49.984;8.404;2022-11-25T11:30:26;10.93;;;6.73;;
13969;SDS011;7057;49.984;8.404;2022-11-25T11:32:55;8.13;;;5.67;;
13969;SDS011;7057;49.984;8.404;2022-11-25T11:35:28;8.13;;;5.90;;
13969;SDS011;7057;49.984;8.404;2022-11-25T11:40:56;10.27;;;6.07;;
13969;SDS011;7057;49.984;8.404;2022-11-25T11:43:38;17.23;;;6.57;;
13969;SDS011;7057;49.984;8.404;2022-11-25T11:46:25;9.40;;;6.63;;
13969;SDS011;7057;49.984;8.404;2022-11-25T11:49:19;8.77;;;5.53;;
13969;SDS011;7057;49.984;8.404;2022-11-25T11:51:57;10.57;;;6.23;;
13969;SDS011;7057;49.984;8.404;2022-11-25T11:54:32;11.10;;;6.63;;
13969;SDS011;7057;49.984;8.404;2022-11-25T11:57:02;9.83;;;5.63;;
13969;SDS011;7057;49.984;8.404;2022-11-25T11:59:39;13.63;;;6.73;;
13969;SDS011;7057;49.984;8.404;2022-11-25T12:02:16;12.30;;;6.27;;
13969;SDS011;7057;49.984;8.404;2022-11-25T12:04:50;13.43;;;5.30;;
13969;SDS011;7057;49.984;8.404;2022-11-25T12:07:23;10.90;;;5.67;;
13969;SDS011;7057;49.984;8.404;2022-11-25T12:10:02;10.40;;;5.60;;
13969;SDS011;7057;49.984;8.404;2022-11-25T12:12:34;10.90;;;6.00;;
13969;SDS011;7057;49.984;8.404;2022-11-25T12:15:04;13.90;;;6.40;;
13969;SDS011;7057;49.984;8.404;2022-11-25T12:17:42;10.73;;;6.40;;
13969;SDS011;7057;49.984;8.404;2022-11-25T12:20:15;9.33;;;5.87;;
13969;SDS011;7057;49.984;8.404;2022-11-25T12:22:49;11.00;;;5.57;;
13969;SDS011;7057;49.984;8.404;2022-11-25T12:25:22;12.17;;;5.73;;
13969;SDS011;7057;49.984;8.404;2022-11-25T12:27:56;11.37;;;6.27;;
13969;SDS011;7057;49.984;8.404;2022-11-25T12:30:28;10.90;;;6.07;;
13969;SDS011;7057;49.984;8.404;2022-11-25T12:33:02;10.77;;;6.20;;
13969;SDS011;7057;49.984;8.404;2022-11-25T12:35:40;11.30;;;6.30;;
13969;SDS011;7057;49.984;8.404;2022-11-25T12:38:17;8.70;;;5.83;;
13969;SDS011;7057;49.984;8.404;2022-11-25T12:40:54;11.13;;;6.23;;
13969;SDS011;7057;49.984;8.404;2022-11-25T12:43:31;14.37;;;6.57;;
13969;SDS011;7057;49.984;8.404;2022-11-25T12:46:06;12.63;;;6.80;;
13969;SDS011;7057;49.984;8.404;2022-11-25T12:48:41;9.97;;;6.53;;
13969;SDS011;7057;49.984;8.404;2022-11-25T12:51:11;13.37;;;6.60;;
13969;SDS011;7057;49.984;8.404;2022-11-25T12:53:45;13.33;;;6.87;;
13969;SDS011;7057;49.984;8.404;2022-11-25T12:56:29;13.90;;;8.03;;
13969;SDS011;7057;49.984;8.404;2022-11-25T12:59:12;12.47;;;7.50;;
13969;SDS011;7057;49.984;8.404;2022-11-25T13:01:58;10.83;;;6.70;;
13969;SDS011;7057;49.984;8.404;2022-11-25T13:07:44;13.93;;;7.23;;
13969;SDS011;7057;49.984;8.404;2022-11-25T13:10:36;13.53;;;7.30;;
13969;SDS011;7057;49.984;8.404;2022-11-25T13:13:21;11.47;;;6.90;;
13969;SDS011;7057;49.984;8.404;2022-11-25T13:15:57;14.40;;;7.60;;
13969;SDS011;7057;49.984;8.404;2022-11-25T13:18:26;13.27;;;6.57;;
13969;SDS011;7057;49.984;8.404;2022-11-25T13:21:04;9.43;;;6.10;;
13969;SDS011;7057;49.984;8.404;2022-11-25T13:23:40;11.73;;;6.30;;
13969;SDS011;7057;49.984;8.404;2022-11-25T13:29:51;11.18;;;6.25;;
13969;SDS011;7057;49.984;8.404;2022-11-25T13:32:27;10.97;;;6.00;;
13969;SDS011;7057;49.984;8.404;2022-11-25T13:37:59;9.53;;;5.60;;
13969;SDS011;7057;49.984;8.404;2022-11-25T13:40:32;9.77;;;5.00;;
13969;SDS011;7057;49.984;8.404;2022-11-25T13:43:02;13.00;;;5.93;;
13969;SDS011;7057;49.984;8.404;2022-11-25T13:45:31;11.90;;;5.90;;
13969;SDS011;7057;49.984;8.404;2022-11-25T13:48:09;14.33;;;5.17;;
13969;SDS011;7057;49.984;8.404;2022-11-25T13:50:39;9.30;;;5.30;;
13969;SDS011;7057;49.984;8.404;2022-11-25T13:53:06;7.50;;;4.80;;
13969;SDS011;7057;49.984;8.404;2022-11-25T13:55:46;7.10;;;4.23;;
13969;SDS011;7057;49.984;8.404;2022-11-25T13:58:19;8.67;;;4.37;;
13969;SDS011;7057;49.984;8.404;2022-11-25T14:03:49;6.97;;;4.53;;
13969;SDS011;7057;49.984;8.404;2022-11-25T14:06:25;11.50;;;4.87;;
13969;SDS011;7057;49.984;8.404;2022-11-25T14:09:11;9.83;;;5.17;;
13969;SDS011;7057;49.984;8.404;2022-11-25T14:11:55;7.90;;;4.70;;
13969;SDS011;7057;49.984;8.404;2022-11-25T14:14:51;7.17;;;4.90;;
13969;SDS011;7057;49.984;8.404;2022-11-25T14:17:52;10.57;;;4.90;;
13969;SDS011;7057;49.984;8.404;2022-11-25T14:20:42;10.83;;;5.63;;
13969;SDS011;7057;49.984;8.404;2022-11-25T14:26:07;7.17;;;6.00;;
13969;SDS011;7057;49.984;8.404;2022-11-25T14:28:38;8.07;;;5.10;;
13969;SDS011;7057;49.984;8.404;2022-11-25T14:31:11;10.57;;;5.60;;
13969;SDS011;7057;49.984;8.404;2022-11-25T14:33:43;7.70;;;4.77;;
13969;SDS011;7057;49.984;8.404;2022-11-25T14:36:18;7.50;;;5.07;;
13969;SDS011;7057;49.984;8.404;2022-11-25T14:38:51;7.83;;;5.33;;
13969;SDS011;7057;49.984;8.404;2022-11-25T14:41:25;9.87;;;5.20;;
13969;SDS011;7057;49.984;8.404;2022-11-25T14:43:57;12.23;;;5.37;;
13969;SDS011;7057;49.984;8.404;2022-11-25T14:46:29;8.30;;;5.20;;
13969;SDS011;7057;49.984;8.404;2022-11-25T14:48:56;11.77;;;5.63;;
13969;SDS011;7057;49.984;8.404;2022-11-25T14:51:27;8.17;;;5.73;;
13969;SDS011;7057;49.984;8.404;2022-11-25T14:53:59;8.23;;;5.80;;
13969;SDS011;7057;49.984;8.404;2022-11-25T14:56:28;8.87;;;5.07;;
13969;SDS011;7057;49.984;8.404;2022-11-25T14:58:56;10.27;;;5.67;;
13969;SDS011;7057;49.984;8.404;2022-11-25T15:01:25;7.60;;;5.40;;
13969;SDS011;7057;49.984;8.404;2022-11-25T15:04:00;8.70;;;4.87;;
13969;SDS011;7057;49.984;8.404;2022-11-25T15:06:33;8.40;;;4.87;;
13969;SDS011;7057;49.984;8.404;2022-11-25T15:09:02;6.33;;;5.00;;
13969;SDS011;7057;49.984;8.404;2022-11-25T15:11:37;9.47;;;4.60;;
13969;SDS011;7057;49.984;8.404;2022-11-25T15:14:05;8.47;;;4.37;;
13969;SDS011;7057;49.984;8.404;2022-11-25T15:16:33;9.27;;;5.00;;
13969;SDS011;7057;49.984;8.404;2022-11-25T15:19:03;9.13;;;4.70;;
13969;SDS011;7057;49.984;8.404;2022-11-25T15:21:33;7.80;;;5.03;;
13969;SDS011;7057;49.984;8.404;2022-11-25T15:24:01;10.40;;;5.60;;
13969;SDS011;7057;49.984;8.404;2022-11-25T15:26:31;9.60;;;5.37;;
13969;SDS011;7057;49.984;8.404;2022-11-25T15:29:00;10.43;;;5.30;;
13969;SDS011;7057;49.984;8.404;2022-11-25T15:31:31;13.93;;;5.50;;